Coeur d'Alene, ID (83814)

11:04 AM PST on November 28, 2014 (GMT -0800)
Downtown Coeur d'Alene | Change Station
CLOSE
Current Station
Personal Weather Station
Location: Coeur d'Alene, ID
Elevation: 2175 ft
Nearby Weather Stations

Elev 2175 ft 47.67 °N, 116.79 °W | Updated 4 minutes ago

Overcast
Overcast
54.1 °F
Feels Like 54.1 °F
N
15.9
Wind Variable Wind from WNW
Gusts 28.2 mph

Today
High -- | Low -- °F
--% Chance of Precip.
Yesterday
High -- | Low -- °F
Precip. -- in
7:10 AM 3:58 PM
Waxing Crescent, 43% visible
Pressure 29.46 in
Visibility 10.0 miles
Clouds Scattered Clouds 3900 ft
Scattered Clouds 4400 ft
Overcast 10000 ft
Dew Point 40 °F
Humidity 59%
Rainfall 0.11 in
Snow Depth Not available.
UV 0 out of 12
Pollen .10 out of 12
Air Quality Not available.
Flu Activity Not available.
METAR KCOE 281855Z AUTO 23014G22KT 10SM SCT039 SCT044 OVC100 12/05 A2946 RMK AO1

More Conditions Fewer Conditions

Pressure 29.46 in
Visibility 10.0 miles
Clouds Scattered Clouds 3900 ft
Scattered Clouds 4400 ft
Overcast 10000 ft
Dew Point 40 °F
Humidity 59%
Rainfall 0.11 in
Snow Depth Not available.
UV 0 out of 12
Pollen .10 out of 12
Air Quality Not available.
Flu Activity Not available.
METAR KCOE 281855Z AUTO 23014G22KT 10SM SCT039 SCT044 OVC100 12/05 A2946 RMK AO1

More Conditions Fewer Conditions

10-Day Weather Forecast

Almanac

Astronomy

Nov. 28, 2014 Rise Set
Actual Time
Civil Twilight
Nautical Twilight
Astronomical Twilight
Moon
Length of Visible Light
Length of Day
Tomorrow will be .
, % of the Moon is Illuminated

Today's Extremes

State Highs State Lows

Community

WunderPhotos

Upload Photos

1,774,261 photos uploaded!

WunderBlogs® & News

Nearby

Air Quality

  Air Quality AQ Index Pollutant
Not available.

Snow Depth

Station Depth Elevation

Earthquake Activity

City Distance Mag. Time & Date
Minimum magnitude displayed is 2.5.

Coastal Water Temperatures

Place Temperature

Nearby Weather Stations